Terminal Aerodrome Forecast
Issued by NWS Mt. Holly, NJ

Home | Current Version | Previous Version | Text Only | Print | Product List | Glossary On
Versions: 1 2 3 4 5 6 7 8 9 10 11 12 13 14 15 16 17 18 19 20 21 22 23 24
065
FTUS41 KPHI 190130 AAA
TAFACY
TAF AMD
KACY 190130Z 1902/1924 12006KT 4SM -TSRA BR BKN035CB
     FM190300 VRB03KT P6SM SCT015 BKN100
      TEMPO 1906/1909 5SM BR BKN015
     FM190900 VRB03KT 4SM BR BKN015
     FM191200 32006KT P6SM SCT025
     FM191400 30008KT P6SM FEW040
     FM191700 26008KT P6SM SCT050=

USA.gov is the U.S. government's official web portal to all federal, state and local government web resources and services.